Terminal Aerodrome Forecast
Issued by NWS Miami, FL

Home | Current Version | Previous Version | Text Only | Print | Product List | Glossary On
Versions: 1 2 3 4 5 6 7 8 9 10 11 12 13 14 15 16 17 18 19 20 21 22 23 24 25
000
FTUS42 KMFL 170133 AAA
TAFPBI
TAF AMD
KPBI 170133Z 1702/1724 05010KT P6SM -SHRA BKN025
     FM170600 07008KT P6SM BKN025
     FM171200 07008KT P6SM VCSH BKN025
     FM171700 07012KT P6SM VCSH BKN035 PROB30 1719/1724 4SM TSRA
      BKN025CB=

USA.gov is the U.S. government's official web portal to all federal, state and local government web resources and services.